POF weather

Poplar Bluff Municipal Airport
Poplar Bluff, Missouri, United States

Public forecast

Using degrees Fahrenheit for public forecast. Weather courtesy of forecast.io.

Current aviation weather report (METAR) for Poplar Bluff Municipal Airport

Retrieved 2020/07/05 09:53 UTC (16 minutes ago):

KPOF 050953Z AUTO 34003KT 8SM CLR 22/20 A2992 RMK AO2 SLP125 T02170200

Closest aviation forecast (TAF) to Poplar Bluff Municipal Airport

Closest forecast is Cape Girardeau Regional Airport, 45.2 nm (83.7 km) NE. Retrieved 2020/07/05 06:22 UTC (4 hours ago):

TAF KCGI 050520Z 0506/0606 00000KT 5SM BR FEW250 TEMPO 0509/0513 2SM BR MIFG FM051400 VRB03KT P6SM FEW045 FEW250 FM060300 00000KT P6SM FEW200